createdAt,value
2023-05-25T00:00:20.322Z,1.92
2023-05-25T00:02:49.866Z,2.38
2023-05-25T00:05:19.413Z,2.20
2023-05-25T00:07:49.103Z,2.33
2023-05-25T00:10:18.384Z,2.42
2023-05-25T00:12:47.583Z,2.25
2023-05-25T00:15:17.055Z,2.53
2023-05-25T00:17:50.014Z,2.25
2023-05-25T00:20:20.658Z,2.45
2023-05-25T00:22:49.786Z,2.40
2023-05-25T00:25:19.651Z,2.45
2023-05-25T00:27:48.873Z,2.42
2023-05-25T00:30:18.045Z,2.42
2023-05-25T00:32:47.526Z,2.60
2023-05-25T00:35:17.420Z,2.40
2023-05-25T00:37:47.617Z,2.20
2023-05-25T00:40:18.607Z,2.60
2023-05-25T00:42:49.316Z,2.40
2023-05-25T00:45:21.690Z,2.70
2023-05-25T00:47:53.854Z,2.30
2023-05-25T00:50:41.725Z,2.65
2023-05-25T00:53:13.053Z,2.70
2023-05-25T00:55:59.243Z,2.35
2023-05-25T00:58:32.464Z,2.47
2023-05-25T01:01:03.197Z,2.10
2023-05-25T01:03:39.191Z,2.00
2023-05-25T01:06:14.292Z,2.28
2023-05-25T01:08:49.023Z,2.22
2023-05-25T01:11:21.246Z,2.47
2023-05-25T01:13:54.556Z,2.40
2023-05-25T01:16:24.582Z,2.30
2023-05-25T01:18:55.111Z,2.88
2023-05-25T01:21:55.946Z,2.22
2023-05-25T01:24:45.786Z,2.28
2023-05-25T01:27:33.486Z,2.45
2023-05-25T01:30:06.234Z,2.38
2023-05-25T01:32:38.606Z,2.08
2023-05-25T01:35:10.365Z,2.30
2023-05-25T01:37:46.549Z,1.92
2023-05-25T01:40:16.694Z,2.40
2023-05-25T01:42:46.833Z,2.28
2023-05-25T01:45:17.901Z,2.00
2023-05-25T01:48:07.680Z,2.33
2023-05-25T01:50:55.177Z,2.53
2023-05-25T01:53:35.902Z,2.90
2023-05-25T01:56:09.732Z,2.60
2023-05-25T01:58:46.073Z,2.63
2023-05-25T02:01:20.068Z,3.30
2023-05-25T02:03:50.620Z,2.70
2023-05-25T02:06:20.922Z,2.85
2023-05-25T02:08:50.075Z,2.50
2023-05-25T02:11:20.424Z,2.50
2023-05-25T02:13:49.715Z,2.28
2023-05-25T02:16:18.748Z,1.95
2023-05-25T02:18:48.255Z,1.90
2023-05-25T02:21:18.352Z,2.20
2023-05-25T02:23:49.019Z,2.28
2023-05-25T02:26:18.308Z,2.40
2023-05-25T02:28:47.680Z,2.05
2023-05-25T02:31:19.671Z,2.17
2023-05-25T02:33:49.767Z,1.67
2023-05-25T02:36:22.180Z,2.20
2023-05-25T02:38:53.252Z,1.77
2023-05-25T02:41:22.837Z,1.60
2023-05-25T02:43:52.631Z,1.67
2023-05-25T02:46:23.859Z,1.77
2023-05-25T02:48:53.855Z,1.45
2023-05-25T02:51:23.101Z,2.00
2023-05-25T02:53:53.227Z,1.90
2023-05-25T02:56:25.194Z,1.50
2023-05-25T02:58:54.821Z,1.83
2023-05-25T03:01:35.933Z,1.40
2023-05-25T03:04:05.422Z,1.83
2023-05-25T03:06:39.170Z,1.88
2023-05-25T03:09:15.764Z,1.83
2023-05-25T03:11:46.417Z,1.58
2023-05-25T03:14:18.600Z,1.80
2023-05-25T03:16:55.358Z,1.95
2023-05-25T03:19:26.112Z,1.60
2023-05-25T03:21:55.336Z,1.77
2023-05-25T03:24:24.776Z,1.50
2023-05-25T03:26:56.224Z,1.58
2023-05-25T03:29:25.487Z,1.42
2023-05-25T03:31:55.689Z,1.65
2023-05-25T03:34:28.090Z,1.77
2023-05-25T03:36:57.840Z,1.63
2023-05-25T03:39:27.578Z,1.60
2023-05-25T03:41:58.013Z,1.85
2023-05-25T03:44:27.869Z,2.42
2023-05-25T03:46:57.086Z,2.08
2023-05-25T03:49:26.505Z,2.20
2023-05-25T03:51:56.084Z,1.67
2023-05-25T03:54:25.484Z,1.77
2023-05-25T03:57:13.341Z,1.70
2023-05-25T03:59:42.669Z,1.83
2023-05-25T04:02:12.228Z,1.63
2023-05-25T04:04:42.753Z,1.98
2023-05-25T04:07:12.617Z,2.10
2023-05-25T04:09:42.139Z,2.13
2023-05-25T04:12:11.908Z,1.92
2023-05-25T04:14:43.652Z,2.20
2023-05-25T04:17:13.930Z,1.80
2023-05-25T04:19:44.150Z,1.90
2023-05-25T04:22:13.523Z,2.13
2023-05-25T04:24:44.057Z,1.90
2023-05-25T04:27:15.254Z,2.17
2023-05-25T04:29:44.739Z,1.60
2023-05-25T04:32:34.063Z,1.92
2023-05-25T04:35:30.273Z,2.15
2023-05-25T04:38:03.711Z,1.83
2023-05-25T04:40:34.406Z,2.70
2023-05-25T04:43:06.248Z,3.05
2023-05-25T04:45:35.715Z,1.73
2023-05-25T04:48:06.372Z,2.13
2023-05-25T04:50:35.733Z,2.08
2023-05-25T04:53:06.904Z,1.70
2023-05-25T04:55:37.918Z,2.42
2023-05-25T04:58:07.271Z,1.90
2023-05-25T05:00:37.652Z,1.88
2023-05-25T05:03:07.712Z,1.88
2023-05-25T05:05:38.112Z,2.10
2023-05-25T05:08:11.286Z,1.85
2023-05-25T05:10:40.596Z,1.80
2023-05-25T05:13:12.484Z,2.03
2023-05-25T05:15:42.616Z,1.90
2023-05-25T05:18:11.991Z,1.88
2023-05-25T05:20:41.625Z,2.10
2023-05-25T05:23:11.470Z,2.30
2023-05-25T05:25:40.527Z,2.67
2023-05-25T05:28:10.077Z,1.80
2023-05-25T05:30:42.596Z,2.17
2023-05-25T05:33:12.377Z,3.95
2023-05-25T05:35:47.041Z,6.47
2023-05-25T05:38:24.076Z,7.30
2023-05-25T05:40:54.330Z,6.75
2023-05-25T05:43:25.406Z,6.03
2023-05-25T05:45:55.295Z,6.82
2023-05-25T05:48:24.451Z,6.53
2023-05-25T05:50:54.403Z,6.18
2023-05-25T05:53:24.096Z,6.13
2023-05-25T05:55:56.391Z,5.95
2023-05-25T05:58:29.769Z,6.97
2023-05-25T06:01:01.002Z,8.02
2023-05-25T06:03:30.561Z,6.70
2023-05-25T06:05:59.953Z,6.50
2023-05-25T06:08:29.297Z,7.50
2023-05-25T06:10:59.023Z,7.75
2023-05-25T06:13:28.674Z,8.32
2023-05-25T06:15:58.022Z,9.80
2023-05-25T06:18:27.586Z,11.48
2023-05-25T06:20:59.455Z,11.68
2023-05-25T06:23:28.764Z,10.70
2023-05-25T06:25:57.956Z,7.80
2023-05-25T06:28:27.159Z,6.93
2023-05-25T06:30:56.699Z,6.90
2023-05-25T06:33:25.929Z,6.45
2023-05-25T06:36:01.939Z,5.40
2023-05-25T06:38:31.667Z,4.75
2023-05-25T06:41:06.102Z,4.47
2023-05-25T06:43:35.610Z,4.43
2023-05-25T06:46:19.319Z,4.65
2023-05-25T06:48:49.558Z,4.47
2023-05-25T06:51:18.669Z,4.95
2023-05-25T06:53:48.314Z,5.20
2023-05-25T06:56:17.578Z,4.80
2023-05-25T06:58:46.731Z,4.50
2023-05-25T07:01:17.660Z,4.30
2023-05-25T07:03:47.105Z,3.88
2023-05-25T07:06:18.353Z,4.00
2023-05-25T07:08:48.049Z,3.58
2023-05-25T07:11:21.797Z,4.10
2023-05-25T07:13:51.644Z,3.40
2023-05-25T07:16:20.938Z,4.05
2023-05-25T07:18:50.549Z,4.20
2023-05-25T07:21:19.661Z,4.40
2023-05-25T07:23:49.491Z,4.07
2023-05-25T07:26:18.671Z,3.80
2023-05-25T07:28:48.660Z,4.35
2023-05-25T07:31:18.710Z,3.60
2023-05-25T07:33:48.543Z,3.80
2023-05-25T07:36:19.133Z,3.65
2023-05-25T07:38:49.206Z,3.90
2023-05-25T07:41:19.283Z,3.53
2023-05-25T07:43:48.599Z,4.20
2023-05-25T07:46:18.742Z,3.97
2023-05-25T07:48:48.479Z,3.92
2023-05-25T07:51:17.566Z,3.65
2023-05-25T07:53:46.986Z,2.92
2023-05-25T07:56:16.832Z,3.25
2023-05-25T07:58:45.999Z,3.45
2023-05-25T08:01:15.940Z,3.50
2023-05-25T08:03:49.560Z,3.58
2023-05-25T08:06:19.968Z,3.05
2023-05-25T08:08:51.038Z,3.00
2023-05-25T08:11:25.626Z,3.38
2023-05-25T08:13:55.492Z,3.10
2023-05-25T08:16:24.669Z,3.40
2023-05-25T08:18:54.327Z,3.70
2023-05-25T08:21:24.173Z,3.58
2023-05-25T08:23:55.163Z,3.42
2023-05-25T08:26:41.288Z,3.35
2023-05-25T08:29:14.384Z,3.42
2023-05-25T08:31:44.890Z,3.33
2023-05-25T08:34:14.352Z,3.53
2023-05-25T08:36:43.459Z,3.53
2023-05-25T08:39:13.214Z,3.45
2023-05-25T08:41:46.722Z,3.58
2023-05-25T08:44:16.995Z,3.30
2023-05-25T08:46:52.593Z,3.92
2023-05-25T08:49:23.990Z,3.13
2023-05-25T08:51:55.141Z,4.00
2023-05-25T08:54:36.789Z,2.92
2023-05-25T08:57:36.355Z,3.55
2023-05-25T09:00:11.606Z,3.22
2023-05-25T09:02:52.843Z,3.35
2023-05-25T09:05:23.651Z,3.63
2023-05-25T09:07:55.948Z,3.10
2023-05-25T09:10:28.875Z,3.23
2023-05-25T09:12:58.829Z,2.95
2023-05-25T09:15:28.068Z,3.22
2023-05-25T09:17:57.379Z,2.70
2023-05-25T09:20:32.973Z,2.67
2023-05-25T09:23:03.739Z,2.72
2023-05-25T09:25:34.553Z,2.33
2023-05-25T09:28:24.161Z,2.25
2023-05-25T09:30:54.087Z,2.50
2023-05-25T09:33:23.211Z,2.60
2023-05-25T09:35:53.438Z,2.67
2023-05-25T09:38:23.957Z,2.50
2023-05-25T09:40:53.305Z,2.17
2023-05-25T09:43:36.307Z,2.60
2023-05-25T09:46:10.981Z,2.53
2023-05-25T09:48:40.670Z,2.40
2023-05-25T09:51:10.590Z,2.40
2023-05-25T09:53:50.914Z,2.25
2023-05-25T09:56:20.260Z,2.13
2023-05-25T09:58:49.420Z,3.55
2023-05-25T10:01:19.228Z,2.63
2023-05-25T10:04:02.891Z,2.30
2023-05-25T10:06:34.777Z,3.40
2023-05-25T10:09:06.385Z,2.90
2023-05-25T10:11:41.096Z,2.85
2023-05-25T10:14:15.015Z,2.55
2023-05-25T10:16:51.204Z,2.70
2023-05-25T10:19:42.536Z,2.30
2023-05-25T10:22:25.910Z,2.90
2023-05-25T10:25:18.102Z,1.98
2023-05-25T10:28:06.390Z,2.30
2023-05-25T10:30:38.154Z,2.20
2023-05-25T10:33:08.833Z,1.85
2023-05-25T10:35:56.235Z,2.15
2023-05-25T10:38:35.756Z,1.85
2023-05-25T10:41:08.446Z,1.70
2023-05-25T10:43:42.541Z,1.60
2023-05-25T10:46:13.626Z,1.85
2023-05-25T10:48:50.429Z,2.70
2023-05-25T10:51:23.416Z,1.92
2023-05-25T10:56:34.207Z,2.30
2023-05-25T10:59:03.637Z,2.10
2023-05-25T11:01:36.115Z,2.05
2023-05-25T11:04:11.695Z,2.40
2023-05-25T11:06:47.188Z,1.90
2023-05-25T11:09:39.757Z,1.83
2023-05-25T11:12:22.007Z,2.33
2023-05-25T11:15:16.587Z,2.13
2023-05-25T11:17:48.249Z,2.20
2023-05-25T11:20:25.074Z,2.53
2023-05-25T11:22:54.686Z,1.77
2023-05-25T11:25:49.876Z,1.95
2023-05-25T11:28:19.722Z,2.10
2023-05-25T11:30:48.968Z,2.10
2023-05-25T11:33:23.542Z,2.15
2023-05-25T11:35:53.612Z,2.30
2023-05-25T11:38:26.732Z,2.25
2023-05-25T11:40:55.917Z,2.20
2023-05-25T11:43:28.094Z,2.40
2023-05-25T11:46:01.440Z,2.13
2023-05-25T11:48:31.554Z,2.67
2023-05-25T11:51:08.157Z,2.03
2023-05-25T11:53:42.788Z,2.60
2023-05-25T11:56:30.624Z,1.85
2023-05-25T11:59:03.612Z,2.50
2023-05-25T12:01:35.417Z,2.50
2023-05-25T12:04:11.290Z,3.40
2023-05-25T12:06:41.408Z,2.85
2023-05-25T12:09:14.630Z,2.70
2023-05-25T12:11:46.838Z,2.20
2023-05-25T12:14:16.705Z,2.58
2023-05-25T12:16:46.621Z,2.30
2023-05-25T12:19:16.392Z,2.25
2023-05-25T12:21:48.851Z,2.38
2023-05-25T12:24:20.274Z,2.42
2023-05-25T12:27:02.827Z,1.90
2023-05-25T12:29:32.813Z,2.13
2023-05-25T12:32:06.625Z,1.95
2023-05-25T12:34:36.758Z,1.83
2023-05-25T12:37:06.940Z,2.13
2023-05-25T12:39:40.154Z,2.25
2023-05-25T12:42:16.472Z,2.40
2023-05-25T12:44:47.926Z,2.17
2023-05-25T12:47:20.637Z,2.20
2023-05-25T12:49:53.252Z,1.88
2023-05-25T12:52:38.460Z,2.20
2023-05-25T12:55:27.396Z,1.92
2023-05-25T12:58:00.653Z,2.17
2023-05-25T13:03:04.006Z,2.85
2023-05-25T13:05:38.587Z,2.13
2023-05-25T13:08:08.780Z,2.33
2023-05-25T13:10:40.039Z,2.70
2023-05-25T13:13:09.330Z,2.10
2023-05-25T13:15:38.688Z,2.35
2023-05-25T13:18:08.027Z,2.63
2023-05-25T13:20:38.038Z,2.30
2023-05-25T13:23:07.467Z,2.50
2023-05-25T13:25:37.652Z,2.53
2023-05-25T13:28:09.186Z,2.60
2023-05-25T13:30:38.931Z,2.65
2023-05-25T13:33:08.628Z,2.65
2023-05-25T13:35:59.154Z,2.50
2023-05-25T13:38:30.657Z,3.13
2023-05-25T13:40:59.997Z,3.15
2023-05-25T13:43:30.830Z,3.33
2023-05-25T13:46:01.172Z,3.05
2023-05-25T13:48:31.357Z,3.15
2023-05-25T13:51:01.000Z,3.88
2023-05-25T13:53:30.418Z,3.55
2023-05-25T13:55:59.688Z,4.22
2023-05-25T13:58:29.074Z,4.72
2023-05-25T14:00:58.365Z,3.70
2023-05-25T14:03:27.870Z,3.30
2023-05-25T14:05:57.197Z,4.13
2023-05-25T14:08:26.798Z,3.45
2023-05-25T14:10:56.570Z,3.60
2023-05-25T14:13:26.050Z,3.38
2023-05-25T14:15:55.332Z,3.53
2023-05-25T14:18:24.621Z,3.75
2023-05-25T14:20:53.955Z,3.17
2023-05-25T14:23:23.721Z,4.00
2023-05-25T14:25:53.294Z,3.03
2023-05-25T14:28:23.576Z,2.78
2023-05-25T14:30:54.438Z,3.15
2023-05-25T14:33:23.735Z,3.13
2023-05-25T14:35:53.520Z,3.15
2023-05-25T14:38:24.421Z,3.15
2023-05-25T14:40:54.759Z,3.38
2023-05-25T14:43:24.613Z,3.33
2023-05-25T14:45:54.369Z,2.85
2023-05-25T14:48:26.475Z,3.20
2023-05-25T14:50:56.384Z,2.78
2023-05-25T14:53:26.490Z,2.90
2023-05-25T14:55:56.140Z,3.20
2023-05-25T14:58:25.378Z,2.95
2023-05-25T15:00:55.617Z,3.15
2023-05-25T15:03:26.402Z,2.95
2023-05-25T15:05:56.597Z,2.95
2023-05-25T15:08:26.208Z,2.35
2023-05-25T15:10:55.800Z,2.80
2023-05-25T15:13:24.984Z,2.50
2023-05-25T15:15:57.506Z,3.25
2023-05-25T15:18:27.779Z,3.25
2023-05-25T15:20:59.342Z,3.00
2023-05-25T15:23:29.096Z,2.95
2023-05-25T15:26:05.551Z,2.88
2023-05-25T15:28:36.127Z,3.08
2023-05-25T15:31:06.184Z,3.50
2023-05-25T15:33:51.558Z,3.42
2023-05-25T15:36:23.671Z,3.17
2023-05-25T15:38:52.980Z,3.92
2023-05-25T15:41:23.082Z,3.35
2023-05-25T15:44:02.110Z,3.58
2023-05-25T15:46:31.853Z,3.25
2023-05-25T15:49:01.110Z,3.83
2023-05-25T15:51:30.499Z,3.22
2023-05-25T15:54:00.488Z,3.08
2023-05-25T15:56:29.664Z,3.35
2023-05-25T15:59:00.046Z,3.30
2023-05-25T16:01:29.937Z,3.47
2023-05-25T16:04:00.309Z,3.25
2023-05-25T16:06:31.749Z,3.53
2023-05-25T16:09:02.148Z,3.63
2023-05-25T16:11:34.272Z,3.55
2023-05-25T16:14:03.515Z,3.58
2023-05-25T16:16:32.874Z,3.70
2023-05-25T16:19:02.435Z,3.30
2023-05-25T16:21:31.802Z,3.70
2023-05-25T16:24:01.146Z,4.13
2023-05-25T16:26:30.723Z,4.88
2023-05-25T16:29:00.164Z,4.80
2023-05-25T16:31:30.112Z,4.63
2023-05-25T16:33:59.398Z,4.60
2023-05-25T16:36:29.419Z,4.90
2023-05-25T16:38:59.230Z,4.95
2023-05-25T16:41:29.316Z,5.30
2023-05-25T16:43:59.029Z,5.00
2023-05-25T16:46:28.350Z,4.68
2023-05-25T16:48:58.330Z,5.82
2023-05-25T16:51:27.614Z,6.63
2023-05-25T16:53:57.416Z,7.53
2023-05-25T16:56:27.405Z,9.27
2023-05-25T16:58:57.258Z,9.43
2023-05-25T17:01:27.431Z,9.35
2023-05-25T17:03:57.131Z,8.80
2023-05-25T17:06:26.822Z,9.10
2023-05-25T17:08:56.949Z,9.40
2023-05-25T17:11:30.320Z,10.57
2023-05-25T17:13:59.843Z,10.45
2023-05-25T17:16:29.174Z,10.00
2023-05-25T17:18:58.568Z,9.90
2023-05-25T17:21:28.201Z,9.63
2023-05-25T17:23:57.518Z,10.13
2023-05-25T17:26:27.058Z,10.65
2023-05-25T17:28:57.562Z,10.43
2023-05-25T17:31:28.998Z,9.98
2023-05-25T17:33:59.407Z,9.85
2023-05-25T17:36:29.753Z,9.50
2023-05-25T17:38:59.448Z,9.63
2023-05-25T17:41:30.753Z,9.88
2023-05-25T17:44:00.330Z,8.80
2023-05-25T17:46:29.981Z,9.10
2023-05-25T17:48:59.614Z,8.73
2023-05-25T17:51:29.020Z,9.07
2023-05-25T17:53:58.386Z,8.93
2023-05-25T17:56:28.461Z,8.95
2023-05-25T17:58:58.341Z,11.05
2023-05-25T18:01:28.045Z,11.32
2023-05-25T18:03:57.817Z,10.75
2023-05-25T18:06:29.415Z,11.50
2023-05-25T18:08:59.213Z,11.73
2023-05-25T18:11:30.345Z,12.07
2023-05-25T18:14:00.129Z,12.55
2023-05-25T18:16:29.398Z,11.50
2023-05-25T18:18:59.035Z,13.73
2023-05-25T18:21:28.834Z,12.52
2023-05-25T18:23:58.048Z,11.77
2023-05-25T18:26:28.211Z,12.20
2023-05-25T18:28:57.885Z,11.90
2023-05-25T18:31:28.350Z,10.32
2023-05-25T18:33:58.714Z,9.63
2023-05-25T18:36:28.145Z,8.60
2023-05-25T18:38:57.874Z,8.98
2023-05-25T18:41:27.969Z,8.10
2023-05-25T18:43:57.670Z,7.80
2023-05-25T18:46:28.339Z,8.98
2023-05-25T18:48:58.134Z,8.35
2023-05-25T18:51:28.026Z,8.05
2023-05-25T18:53:59.896Z,8.80
2023-05-25T18:56:29.847Z,8.03
2023-05-25T18:59:00.896Z,8.98
2023-05-25T19:01:31.265Z,8.68
2023-05-25T19:04:08.511Z,9.43
2023-05-25T19:06:38.865Z,8.57
2023-05-25T19:09:09.429Z,8.75
2023-05-25T19:11:39.254Z,8.88
2023-05-25T19:14:09.026Z,8.68
2023-05-25T19:16:38.310Z,9.10
2023-05-25T19:19:07.988Z,9.05
2023-05-25T19:21:37.764Z,8.88
2023-05-25T19:24:07.752Z,8.55
2023-05-25T19:26:38.935Z,8.57
2023-05-25T19:29:08.546Z,8.63
2023-05-25T19:31:38.780Z,8.00
2023-05-25T19:34:08.576Z,7.97
2023-05-25T19:36:38.792Z,8.18
2023-05-25T19:39:08.372Z,8.02
2023-05-25T19:41:38.742Z,7.72
2023-05-25T19:44:09.029Z,8.27
2023-05-25T19:46:40.269Z,7.90
2023-05-25T19:49:09.816Z,7.72
2023-05-25T19:51:39.198Z,7.38
2023-05-25T19:54:08.904Z,7.97
2023-05-25T19:56:38.342Z,7.10
2023-05-25T19:59:08.485Z,7.65
2023-05-25T20:01:38.010Z,7.45
2023-05-25T20:04:07.520Z,7.18
2023-05-25T20:06:38.592Z,7.45
2023-05-25T20:09:08.389Z,7.22
2023-05-25T20:11:37.830Z,7.45
2023-05-25T20:14:09.173Z,7.50
2023-05-25T20:16:38.797Z,7.50
2023-05-25T20:19:12.025Z,8.60
2023-05-25T20:24:10.565Z,7.43
2023-05-25T20:26:40.623Z,7.18
2023-05-25T20:29:10.228Z,7.57
2023-05-25T20:31:39.985Z,7.20
2023-05-25T20:34:09.435Z,7.10
2023-05-25T20:36:39.155Z,6.78
2023-05-25T20:39:08.345Z,7.47
2023-05-25T20:41:38.235Z,7.05
2023-05-25T20:44:07.975Z,6.93
2023-05-25T20:46:37.614Z,7.10
2023-05-25T20:49:06.823Z,7.45
2023-05-25T20:51:36.192Z,7.82
2023-05-25T20:54:05.314Z,7.45
2023-05-25T20:56:35.280Z,7.97
2023-05-25T20:59:04.600Z,7.68
2023-05-25T21:01:34.169Z,8.15
2023-05-25T21:04:03.399Z,8.18
2023-05-25T21:06:33.379Z,8.13
2023-05-25T21:09:02.631Z,8.20
2023-05-25T21:11:32.838Z,7.43
2023-05-25T21:14:02.224Z,6.55
2023-05-25T21:16:31.915Z,17.88
2023-05-25T21:19:01.724Z,30.65
2023-05-25T21:21:34.839Z,32.15
2023-05-25T21:24:04.792Z,32.03
2023-05-25T21:26:33.872Z,31.88
2023-05-25T21:29:03.558Z,33.90
2023-05-25T21:31:32.788Z,34.75
2023-05-25T21:34:02.181Z,34.22
2023-05-25T21:36:31.572Z,34.65
2023-05-25T21:39:01.622Z,36.45
2023-05-25T21:41:32.674Z,35.65
2023-05-25T21:44:02.587Z,34.50
2023-05-25T21:46:31.981Z,34.25
2023-05-25T21:49:01.027Z,34.08
2023-05-25T21:51:39.411Z,33.20
2023-05-25T21:54:08.541Z,35.03
2023-05-25T21:56:37.811Z,38.53
2023-05-25T21:59:07.648Z,40.35
2023-05-25T22:01:36.767Z,40.85
2023-05-25T22:04:06.080Z,41.90
2023-05-25T22:06:35.578Z,43.67
2023-05-25T22:09:04.579Z,45.28
2023-05-25T22:11:34.824Z,47.33
2023-05-25T22:14:04.204Z,47.33
2023-05-25T22:16:33.586Z,45.40
2023-05-25T22:19:02.763Z,45.10
2023-05-25T22:21:39.422Z,43.60
2023-05-25T22:24:08.891Z,43.70
2023-05-25T22:26:38.270Z,41.55
2023-05-25T22:29:07.971Z,43.50
2023-05-25T22:31:37.547Z,43.65
2023-05-25T22:34:06.650Z,39.50
2023-05-25T22:36:37.919Z,39.80
2023-05-25T22:39:07.098Z,38.42
2023-05-25T22:41:36.076Z,34.63
2023-05-25T22:44:05.408Z,30.77
2023-05-25T22:46:34.673Z,29.50
2023-05-25T22:49:03.815Z,30.92
2023-05-25T22:51:33.327Z,28.58
2023-05-25T22:54:02.775Z,28.23
2023-05-25T22:56:31.972Z,27.52
2023-05-25T22:59:01.409Z,26.23
2023-05-25T23:01:30.725Z,26.23
2023-05-25T23:04:00.809Z,26.13
2023-05-25T23:06:30.082Z,24.48
2023-05-25T23:08:59.354Z,23.25
2023-05-25T23:43:32.752Z,10.85
2023-05-25T23:46:02.549Z,11.60
2023-05-25T23:48:32.470Z,11.43
2023-05-25T23:51:01.563Z,11.73
2023-05-25T23:53:31.138Z,10.52
2023-05-25T23:56:00.301Z,10.50
2023-05-25T23:58:29.662Z,10.73
